sensor_id;sensor_type;location;lat;lon;timestamp;P1;durP1;ratioP1;P2;durP2;ratioP2
2838;SDS011;1427;48.510;9.060;2023-05-15T00:03:20;46.03;;;2.30;;
2838;SDS011;1427;48.510;9.060;2023-05-15T00:05:48;47.47;;;3.13;;
2838;SDS011;1427;48.510;9.060;2023-05-15T00:08:16;46.33;;;2.00;;
2838;SDS011;1427;48.510;9.060;2023-05-15T00:10:44;46.87;;;3.03;;
2838;SDS011;1427;48.510;9.060;2023-05-15T00:13:26;52.97;;;3.33;;
2838;SDS011;1427;48.510;9.060;2023-05-15T00:15:56;47.27;;;2.60;;
2838;SDS011;1427;48.510;9.060;2023-05-15T00:18:24;47.00;;;2.43;;
2838;SDS011;1427;48.510;9.060;2023-05-15T00:20:52;55.73;;;3.43;;
2838;SDS011;1427;48.510;9.060;2023-05-15T00:23:20;49.37;;;3.70;;
2838;SDS011;1427;48.510;9.060;2023-05-15T00:25:48;46.93;;;2.43;;
2838;SDS011;1427;48.510;9.060;2023-05-15T00:28:17;47.20;;;2.90;;
2838;SDS011;1427;48.510;9.060;2023-05-15T00:30:45;47.80;;;3.03;;
2838;SDS011;1427;48.510;9.060;2023-05-15T00:33:14;47.07;;;2.53;;
2838;SDS011;1427;48.510;9.060;2023-05-15T00:35:42;47.80;;;2.73;;
2838;SDS011;1427;48.510;9.060;2023-05-15T00:38:11;48.50;;;3.23;;
2838;SDS011;1427;48.510;9.060;2023-05-15T00:40:39;47.27;;;2.07;;
2838;SDS011;1427;48.510;9.060;2023-05-15T00:43:09;47.93;;;2.40;;
2838;SDS011;1427;48.510;9.060;2023-05-15T00:45:38;46.27;;;2.43;;
2838;SDS011;1427;48.510;9.060;2023-05-15T00:48:08;47.17;;;2.47;;
2838;SDS011;1427;48.510;9.060;2023-05-15T00:50:38;48.33;;;2.63;;
2838;SDS011;1427;48.510;9.060;2023-05-15T00:53:07;48.37;;;3.23;;
2838;SDS011;1427;48.510;9.060;2023-05-15T00:55:36;48.40;;;2.83;;
2838;SDS011;1427;48.510;9.060;2023-05-15T00:58:04;47.90;;;3.00;;
2838;SDS011;1427;48.510;9.060;2023-05-15T01:00:34;48.50;;;2.77;;
2838;SDS011;1427;48.510;9.060;2023-05-15T01:03:03;49.40;;;3.10;;
2838;SDS011;1427;48.510;9.060;2023-05-15T01:05:32;47.23;;;2.63;;
2838;SDS011;1427;48.510;9.060;2023-05-15T01:08:15;47.57;;;2.87;;
2838;SDS011;1427;48.510;9.060;2023-05-15T01:10:47;50.80;;;2.97;;
2838;SDS011;1427;48.510;9.060;2023-05-15T01:13:16;47.10;;;2.23;;
2838;SDS011;1427;48.510;9.060;2023-05-15T01:15:46;49.20;;;3.13;;
2838;SDS011;1427;48.510;9.060;2023-05-15T01:18:15;46.33;;;2.27;;
2838;SDS011;1427;48.510;9.060;2023-05-15T01:20:49;48.70;;;3.23;;
2838;SDS011;1427;48.510;9.060;2023-05-15T01:23:32;47.20;;;2.60;;
2838;SDS011;1427;48.510;9.060;2023-05-15T01:26:28;46.30;;;2.20;;
2838;SDS011;1427;48.510;9.060;2023-05-15T01:29:13;47.70;;;3.10;;
2838;SDS011;1427;48.510;9.060;2023-05-15T01:31:46;50.20;;;2.67;;
2838;SDS011;1427;48.510;9.060;2023-05-15T01:34:21;49.30;;;2.43;;
2838;SDS011;1427;48.510;9.060;2023-05-15T01:36:55;46.70;;;2.87;;
2838;SDS011;1427;48.510;9.060;2023-05-15T01:39:26;46.77;;;2.80;;
2838;SDS011;1427;48.510;9.060;2023-05-15T01:41:57;46.60;;;2.37;;
2838;SDS011;1427;48.510;9.060;2023-05-15T01:44:31;50.40;;;2.87;;
2838;SDS011;1427;48.510;9.060;2023-05-15T01:47:03;46.77;;;2.30;;
2838;SDS011;1427;48.510;9.060;2023-05-15T01:49:35;46.97;;;2.17;;
2838;SDS011;1427;48.510;9.060;2023-05-15T01:52:05;47.27;;;2.13;;
2838;SDS011;1427;48.510;9.060;2023-05-15T01:54:35;47.57;;;2.43;;
2838;SDS011;1427;48.510;9.060;2023-05-15T01:57:03;49.20;;;3.00;;
2838;SDS011;1427;48.510;9.060;2023-05-15T01:59:34;46.07;;;2.07;;
2838;SDS011;1427;48.510;9.060;2023-05-15T02:02:04;47.57;;;2.90;;
2838;SDS011;1427;48.510;9.060;2023-05-15T02:04:32;47.13;;;2.20;;
2838;SDS011;1427;48.510;9.060;2023-05-15T02:07:01;49.80;;;2.70;;
2838;SDS011;1427;48.510;9.060;2023-05-15T02:09:30;48.90;;;2.87;;
2838;SDS011;1427;48.510;9.060;2023-05-15T02:11:59;49.60;;;2.77;;
2838;SDS011;1427;48.510;9.060;2023-05-15T02:14:28;46.80;;;2.43;;
2838;SDS011;1427;48.510;9.060;2023-05-15T02:16:59;47.07;;;2.73;;
2838;SDS011;1427;48.510;9.060;2023-05-15T02:19:27;49.67;;;2.83;;
2838;SDS011;1427;48.510;9.060;2023-05-15T02:21:55;47.77;;;3.43;;
2838;SDS011;1427;48.510;9.060;2023-05-15T02:24:23;47.17;;;2.23;;
2838;SDS011;1427;48.510;9.060;2023-05-15T02:26:55;52.40;;;2.87;;
2838;SDS011;1427;48.510;9.060;2023-05-15T02:29:29;48.17;;;2.37;;
2838;SDS011;1427;48.510;9.060;2023-05-15T02:32:13;47.97;;;2.30;;
2838;SDS011;1427;48.510;9.060;2023-05-15T02:34:48;48.97;;;3.60;;
2838;SDS011;1427;48.510;9.060;2023-05-15T02:37:23;47.43;;;3.27;;
2838;SDS011;1427;48.510;9.060;2023-05-15T02:39:57;47.67;;;2.90;;
2838;SDS011;1427;48.510;9.060;2023-05-15T02:42:28;48.10;;;2.87;;
2838;SDS011;1427;48.510;9.060;2023-05-15T02:44:57;47.03;;;3.27;;
2838;SDS011;1427;48.510;9.060;2023-05-15T02:47:29;47.87;;;3.03;;
2838;SDS011;1427;48.510;9.060;2023-05-15T02:49:59;47.17;;;2.80;;
2838;SDS011;1427;48.510;9.060;2023-05-15T02:52:28;48.30;;;2.80;;
2838;SDS011;1427;48.510;9.060;2023-05-15T02:54:56;46.77;;;2.40;;
2838;SDS011;1427;48.510;9.060;2023-05-15T02:57:24;49.00;;;2.60;;
2838;SDS011;1427;48.510;9.060;2023-05-15T02:59:53;47.10;;;2.60;;
2838;SDS011;1427;48.510;9.060;2023-05-15T03:02:22;47.00;;;2.10;;
2838;SDS011;1427;48.510;9.060;2023-05-15T03:04:51;46.17;;;2.30;;
2838;SDS011;1427;48.510;9.060;2023-05-15T03:07:20;48.70;;;3.03;;
2838;SDS011;1427;48.510;9.060;2023-05-15T03:09:48;52.50;;;2.73;;
2838;SDS011;1427;48.510;9.060;2023-05-15T03:12:16;47.50;;;2.03;;
2838;SDS011;1427;48.510;9.060;2023-05-15T03:14:44;47.03;;;2.80;;
2838;SDS011;1427;48.510;9.060;2023-05-15T03:17:12;48.20;;;2.80;;
2838;SDS011;1427;48.510;9.060;2023-05-15T03:19:40;46.07;;;2.13;;
2838;SDS011;1427;48.510;9.060;2023-05-15T03:22:09;47.20;;;3.07;;
2838;SDS011;1427;48.510;9.060;2023-05-15T03:24:38;46.33;;;2.17;;
2838;SDS011;1427;48.510;9.060;2023-05-15T03:27:06;51.63;;;2.97;;
2838;SDS011;1427;48.510;9.060;2023-05-15T03:29:34;47.90;;;2.90;;
2838;SDS011;1427;48.510;9.060;2023-05-15T03:32:02;46.87;;;2.63;;
2838;SDS011;1427;48.510;9.060;2023-05-15T03:34:31;48.00;;;3.20;;
2838;SDS011;1427;48.510;9.060;2023-05-15T03:36:59;47.50;;;2.63;;
2838;SDS011;1427;48.510;9.060;2023-05-15T03:39:28;47.67;;;2.70;;
2838;SDS011;1427;48.510;9.060;2023-05-15T03:41:56;47.07;;;2.70;;
2838;SDS011;1427;48.510;9.060;2023-05-15T03:44:24;47.60;;;2.40;;
2838;SDS011;1427;48.510;9.060;2023-05-15T03:46:52;46.83;;;2.50;;
2838;SDS011;1427;48.510;9.060;2023-05-15T03:49:20;47.10;;;2.90;;
2838;SDS011;1427;48.510;9.060;2023-05-15T03:51:48;47.10;;;2.47;;
2838;SDS011;1427;48.510;9.060;2023-05-15T03:54:16;48.90;;;2.37;;
2838;SDS011;1427;48.510;9.060;2023-05-15T03:56:46;46.60;;;2.67;;
2838;SDS011;1427;48.510;9.060;2023-05-15T03:59:14;47.50;;;2.83;;
2838;SDS011;1427;48.510;9.060;2023-05-15T04:01:42;48.63;;;2.73;;
2838;SDS011;1427;48.510;9.060;2023-05-15T04:04:29;48.40;;;2.40;;
2838;SDS011;1427;48.510;9.060;2023-05-15T04:06:57;54.40;;;4.00;;
2838;SDS011;1427;48.510;9.060;2023-05-15T04:09:25;48.00;;;4.90;;
2838;SDS011;1427;48.510;9.060;2023-05-15T04:11:55;48.73;;;4.43;;
2838;SDS011;1427;48.510;9.060;2023-05-15T04:14:23;50.10;;;4.83;;
2838;SDS011;1427;48.510;9.060;2023-05-15T04:16:51;47.93;;;4.80;;
2838;SDS011;1427;48.510;9.060;2023-05-15T04:19:19;50.00;;;4.57;;
2838;SDS011;1427;48.510;9.060;2023-05-15T04:21:47;47.33;;;3.97;;
2838;SDS011;1427;48.510;9.060;2023-05-15T04:24:15;47.67;;;4.53;;
2838;SDS011;1427;48.510;9.060;2023-05-15T04:26:43;48.67;;;4.80;;
2838;SDS011;1427;48.510;9.060;2023-05-15T04:29:13;50.10;;;4.50;;
2838;SDS011;1427;48.510;9.060;2023-05-15T04:31:41;52.53;;;5.37;;
2838;SDS011;1427;48.510;9.060;2023-05-15T04:34:09;49.70;;;4.87;;
2838;SDS011;1427;48.510;9.060;2023-05-15T04:36:37;49.33;;;4.60;;
2838;SDS011;1427;48.510;9.060;2023-05-15T04:39:08;47.67;;;4.00;;
2838;SDS011;1427;48.510;9.060;2023-05-15T04:41:36;49.90;;;5.53;;
2838;SDS011;1427;48.510;9.060;2023-05-15T04:44:04;48.60;;;4.00;;
2838;SDS011;1427;48.510;9.060;2023-05-15T04:46:33;47.90;;;4.83;;
2838;SDS011;1427;48.510;9.060;2023-05-15T04:49:02;47.93;;;4.33;;
2838;SDS011;1427;48.510;9.060;2023-05-15T04:51:31;55.37;;;5.70;;
2838;SDS011;1427;48.510;9.060;2023-05-15T04:53:59;48.20;;;4.67;;
2838;SDS011;1427;48.510;9.060;2023-05-15T04:56:27;50.43;;;5.10;;
2838;SDS011;1427;48.510;9.060;2023-05-15T04:58:55;51.93;;;5.27;;
2838;SDS011;1427;48.510;9.060;2023-05-15T05:01:23;49.00;;;5.63;;
2838;SDS011;1427;48.510;9.060;2023-05-15T05:03:53;51.30;;;5.97;;
2838;SDS011;1427;48.510;9.060;2023-05-15T05:06:21;48.83;;;5.70;;
2838;SDS011;1427;48.510;9.060;2023-05-15T05:08:49;49.43;;;4.63;;
2838;SDS011;1427;48.510;9.060;2023-05-15T05:11:17;50.00;;;4.33;;
2838;SDS011;1427;48.510;9.060;2023-05-15T05:13:47;49.73;;;4.50;;
2838;SDS011;1427;48.510;9.060;2023-05-15T05:16:16;49.10;;;4.93;;
2838;SDS011;1427;48.510;9.060;2023-05-15T05:18:44;50.37;;;4.67;;
2838;SDS011;1427;48.510;9.060;2023-05-15T05:21:13;50.90;;;4.60;;
2838;SDS011;1427;48.510;9.060;2023-05-15T05:23:41;50.00;;;4.80;;
2838;SDS011;1427;48.510;9.060;2023-05-15T05:26:09;48.97;;;4.57;;
2838;SDS011;1427;48.510;9.060;2023-05-15T05:28:37;47.87;;;4.00;;
2838;SDS011;1427;48.510;9.060;2023-05-15T05:31:06;50.03;;;5.50;;
2838;SDS011;1427;48.510;9.060;2023-05-15T05:33:34;50.20;;;4.87;;
2838;SDS011;1427;48.510;9.060;2023-05-15T05:36:02;48.00;;;4.40;;
2838;SDS011;1427;48.510;9.060;2023-05-15T05:38:32;51.47;;;6.20;;
2838;SDS011;1427;48.510;9.060;2023-05-15T05:41:00;50.50;;;5.23;;
2838;SDS011;1427;48.510;9.060;2023-05-15T05:43:28;50.30;;;4.47;;
2838;SDS011;1427;48.510;9.060;2023-05-15T05:45:57;51.20;;;5.50;;
2838;SDS011;1427;48.510;9.060;2023-05-15T05:48:25;50.90;;;4.73;;
2838;SDS011;1427;48.510;9.060;2023-05-15T05:50:53;51.53;;;5.23;;
2838;SDS011;1427;48.510;9.060;2023-05-15T05:53:21;51.77;;;4.80;;
2838;SDS011;1427;48.510;9.060;2023-05-15T05:55:51;50.50;;;4.60;;
2838;SDS011;1427;48.510;9.060;2023-05-15T05:58:19;49.20;;;5.57;;
2838;SDS011;1427;48.510;9.060;2023-05-15T06:00:51;49.10;;;5.03;;
2838;SDS011;1427;48.510;9.060;2023-05-15T06:03:19;47.70;;;3.97;;
2838;SDS011;1427;48.510;9.060;2023-05-15T06:05:48;52.23;;;4.93;;
2838;SDS011;1427;48.510;9.060;2023-05-15T06:08:16;51.07;;;5.33;;
2838;SDS011;1427;48.510;9.060;2023-05-15T06:10:44;49.67;;;4.70;;
2838;SDS011;1427;48.510;9.060;2023-05-15T06:13:14;48.80;;;4.63;;
2838;SDS011;1427;48.510;9.060;2023-05-15T06:15:42;48.10;;;4.67;;
2838;SDS011;1427;48.510;9.060;2023-05-15T06:18:11;50.07;;;4.73;;
2838;SDS011;1427;48.510;9.060;2023-05-15T06:20:39;50.17;;;5.30;;
2838;SDS011;1427;48.510;9.060;2023-05-15T06:23:08;48.50;;;4.40;;
2838;SDS011;1427;48.510;9.060;2023-05-15T06:25:36;47.60;;;3.63;;
2838;SDS011;1427;48.510;9.060;2023-05-15T06:28:04;50.27;;;5.70;;
2838;SDS011;1427;48.510;9.060;2023-05-15T06:30:34;48.93;;;4.40;;
2838;SDS011;1427;48.510;9.060;2023-05-15T06:33:02;48.10;;;4.17;;
2838;SDS011;1427;48.510;9.060;2023-05-15T06:35:30;49.10;;;4.90;;
2838;SDS011;1427;48.510;9.060;2023-05-15T06:37:58;49.20;;;5.27;;
2838;SDS011;1427;48.510;9.060;2023-05-15T06:40:27;48.50;;;5.20;;
2838;SDS011;1427;48.510;9.060;2023-05-15T06:42:55;49.80;;;4.87;;
2838;SDS011;1427;48.510;9.060;2023-05-15T06:45:24;48.87;;;4.30;;
2838;SDS011;1427;48.510;9.060;2023-05-15T06:47:54;50.27;;;5.80;;
2838;SDS011;1427;48.510;9.060;2023-05-15T06:50:26;48.20;;;4.70;;
2838;SDS011;1427;48.510;9.060;2023-05-15T06:52:54;51.27;;;4.97;;
2838;SDS011;1427;48.510;9.060;2023-05-15T06:55:22;50.93;;;5.00;;
2838;SDS011;1427;48.510;9.060;2023-05-15T06:57:51;49.40;;;5.47;;
2838;SDS011;1427;48.510;9.060;2023-05-15T07:00:19;48.67;;;4.50;;
2838;SDS011;1427;48.510;9.060;2023-05-15T07:02:47;48.40;;;4.73;;
2838;SDS011;1427;48.510;9.060;2023-05-15T07:05:17;50.50;;;4.20;;
2838;SDS011;1427;48.510;9.060;2023-05-15T07:07:47;51.67;;;4.50;;
2838;SDS011;1427;48.510;9.060;2023-05-15T07:10:15;50.93;;;5.03;;
2838;SDS011;1427;48.510;9.060;2023-05-15T07:12:43;49.70;;;5.23;;
2838;SDS011;1427;48.510;9.060;2023-05-15T07:15:11;55.10;;;6.03;;
2838;SDS011;1427;48.510;9.060;2023-05-15T07:17:39;49.33;;;4.23;;
2838;SDS011;1427;48.510;9.060;2023-05-15T07:20:07;48.80;;;4.10;;
2838;SDS011;1427;48.510;9.060;2023-05-15T07:22:37;48.50;;;4.30;;
2838;SDS011;1427;48.510;9.060;2023-05-15T07:25:21;49.23;;;5.30;;
2838;SDS011;1427;48.510;9.060;2023-05-15T07:27:50;54.00;;;5.20;;
2838;SDS011;1427;48.510;9.060;2023-05-15T07:30:18;50.70;;;5.37;;
2838;SDS011;1427;48.510;9.060;2023-05-15T07:32:46;49.47;;;5.10;;
2838;SDS011;1427;48.510;9.060;2023-05-15T07:35:14;51.80;;;6.00;;
2838;SDS011;1427;48.510;9.060;2023-05-15T07:37:43;48.67;;;4.40;;
2838;SDS011;1427;48.510;9.060;2023-05-15T07:40:12;52.03;;;5.63;;
2838;SDS011;1427;48.510;9.060;2023-05-15T07:42:42;50.50;;;5.10;;
2838;SDS011;1427;48.510;9.060;2023-05-15T07:45:10;48.33;;;4.30;;
2838;SDS011;1427;48.510;9.060;2023-05-15T07:47:40;51.67;;;5.30;;
2838;SDS011;1427;48.510;9.060;2023-05-15T07:50:11;55.10;;;6.30;;
2838;SDS011;1427;48.510;9.060;2023-05-15T07:52:39;48.80;;;4.30;;
2838;SDS011;1427;48.510;9.060;2023-05-15T07:55:09;51.00;;;5.47;;
2838;SDS011;1427;48.510;9.060;2023-05-15T07:57:38;53.23;;;6.40;;
2838;SDS011;1427;48.510;9.060;2023-05-15T08:00:06;50.00;;;5.43;;
2838;SDS011;1427;48.510;9.060;2023-05-15T08:02:37;51.23;;;5.20;;
2838;SDS011;1427;48.510;9.060;2023-05-15T08:05:06;48.60;;;4.60;;
2838;SDS011;1427;48.510;9.060;2023-05-15T08:07:34;49.60;;;5.10;;
2838;SDS011;1427;48.510;9.060;2023-05-15T08:10:02;50.23;;;4.67;;
2838;SDS011;1427;48.510;9.060;2023-05-15T08:12:33;49.57;;;4.57;;
2838;SDS011;1427;48.510;9.060;2023-05-15T08:15:01;53.10;;;5.43;;
2838;SDS011;1427;48.510;9.060;2023-05-15T08:17:29;51.17;;;4.87;;
2838;SDS011;1427;48.510;9.060;2023-05-15T08:19:57;48.97;;;4.97;;
2838;SDS011;1427;48.510;9.060;2023-05-15T08:22:25;49.77;;;4.90;;
2838;SDS011;1427;48.510;9.060;2023-05-15T08:24:55;48.90;;;4.67;;
2838;SDS011;1427;48.510;9.060;2023-05-15T08:27:24;49.67;;;5.40;;
2838;SDS011;1427;48.510;9.060;2023-05-15T08:29:54;50.30;;;4.77;;
2838;SDS011;1427;48.510;9.060;2023-05-15T08:32:22;49.40;;;4.90;;
2838;SDS011;1427;48.510;9.060;2023-05-15T08:34:50;51.30;;;5.60;;
2838;SDS011;1427;48.510;9.060;2023-05-15T08:37:18;49.37;;;5.20;;
2838;SDS011;1427;48.510;9.060;2023-05-15T08:39:46;48.70;;;4.70;;
2838;SDS011;1427;48.510;9.060;2023-05-15T08:42:17;53.50;;;4.93;;
2838;SDS011;1427;48.510;9.060;2023-05-15T08:44:48;52.87;;;5.27;;
2838;SDS011;1427;48.510;9.060;2023-05-15T08:47:18;51.70;;;5.57;;
2838;SDS011;1427;48.510;9.060;2023-05-15T08:49:50;50.20;;;5.30;;
2838;SDS011;1427;48.510;9.060;2023-05-15T08:52:21;50.27;;;5.20;;
2838;SDS011;1427;48.510;9.060;2023-05-15T08:54:51;51.10;;;5.57;;
2838;SDS011;1427;48.510;9.060;2023-05-15T08:57:20;51.17;;;4.83;;
2838;SDS011;1427;48.510;9.060;2023-05-15T08:59:49;50.70;;;5.30;;
2838;SDS011;1427;48.510;9.060;2023-05-15T09:02:20;49.80;;;5.30;;
2838;SDS011;1427;48.510;9.060;2023-05-15T09:04:50;48.83;;;5.43;;
2838;SDS011;1427;48.510;9.060;2023-05-15T09:07:18;47.63;;;4.87;;
2838;SDS011;1427;48.510;9.060;2023-05-15T09:09:47;51.17;;;5.20;;
2838;SDS011;1427;48.510;9.060;2023-05-15T09:12:15;50.60;;;5.23;;
2838;SDS011;1427;48.510;9.060;2023-05-15T09:14:43;50.17;;;5.67;;
2838;SDS011;1427;48.510;9.060;2023-05-15T09:17:11;51.23;;;5.57;;
2838;SDS011;1427;48.510;9.060;2023-05-15T09:19:41;48.37;;;4.50;;
2838;SDS011;1427;48.510;9.060;2023-05-15T09:22:13;50.07;;;5.00;;
2838;SDS011;1427;48.510;9.060;2023-05-15T09:24:43;50.30;;;5.13;;
2838;SDS011;1427;48.510;9.060;2023-05-15T09:27:13;48.10;;;4.37;;
2838;SDS011;1427;48.510;9.060;2023-05-15T09:29:41;48.17;;;4.10;;
2838;SDS011;1427;48.510;9.060;2023-05-15T09:32:11;50.47;;;5.10;;
2838;SDS011;1427;48.510;9.060;2023-05-15T09:34:41;51.00;;;4.80;;
2838;SDS011;1427;48.510;9.060;2023-05-15T09:37:12;50.33;;;5.93;;
2838;SDS011;1427;48.510;9.060;2023-05-15T09:39:54;48.87;;;4.80;;
2838;SDS011;1427;48.510;9.060;2023-05-15T09:42:22;49.43;;;5.20;;
2838;SDS011;1427;48.510;9.060;2023-05-15T09:44:51;49.20;;;4.90;;
2838;SDS011;1427;48.510;9.060;2023-05-15T09:47:19;48.83;;;5.03;;
2838;SDS011;1427;48.510;9.060;2023-05-15T09:49:48;48.77;;;3.73;;
2838;SDS011;1427;48.510;9.060;2023-05-15T09:52:17;52.50;;;5.23;;
2838;SDS011;1427;48.510;9.060;2023-05-15T09:54:45;49.00;;;4.40;;
2838;SDS011;1427;48.510;9.060;2023-05-15T09:57:19;53.27;;;4.80;;
2838;SDS011;1427;48.510;9.060;2023-05-15T09:59:48;49.20;;;4.80;;
2838;SDS011;1427;48.510;9.060;2023-05-15T10:02:22;50.00;;;5.30;;
2838;SDS011;1427;48.510;9.060;2023-05-15T10:04:55;50.80;;;5.50;;
2838;SDS011;1427;48.510;9.060;2023-05-15T10:07:27;49.40;;;4.90;;
2838;SDS011;1427;48.510;9.060;2023-05-15T10:09:55;51.60;;;5.33;;
2838;SDS011;1427;48.510;9.060;2023-05-15T10:12:23;50.40;;;4.80;;
2838;SDS011;1427;48.510;9.060;2023-05-15T10:14:52;49.80;;;5.80;;
2838;SDS011;1427;48.510;9.060;2023-05-15T10:17:23;52.20;;;4.87;;
2838;SDS011;1427;48.510;9.060;2023-05-15T10:19:53;50.27;;;5.20;;
2838;SDS011;1427;48.510;9.060;2023-05-15T10:22:25;49.03;;;4.70;;
2838;SDS011;1427;48.510;9.060;2023-05-15T10:24:58;51.37;;;5.57;;
2838;SDS011;1427;48.510;9.060;2023-05-15T10:27:29;48.90;;;4.33;;
2838;SDS011;1427;48.510;9.060;2023-05-15T10:29:59;51.73;;;5.80;;
2838;SDS011;1427;48.510;9.060;2023-05-15T10:32:29;50.20;;;5.33;;
2838;SDS011;1427;48.510;9.060;2023-05-15T10:35:00;50.77;;;4.70;;
2838;SDS011;1427;48.510;9.060;2023-05-15T10:37:29;49.37;;;5.43;;
2838;SDS011;1427;48.510;9.060;2023-05-15T10:39:58;50.60;;;5.20;;
2838;SDS011;1427;48.510;9.060;2023-05-15T10:42:28;51.37;;;6.37;;
2838;SDS011;1427;48.510;9.060;2023-05-15T10:44:57;49.13;;;4.60;;
2838;SDS011;1427;48.510;9.060;2023-05-15T10:47:28;49.00;;;5.17;;
2838;SDS011;1427;48.510;9.060;2023-05-15T10:49:57;52.50;;;5.30;;
2838;SDS011;1427;48.510;9.060;2023-05-15T10:52:26;49.90;;;6.00;;
2838;SDS011;1427;48.510;9.060;2023-05-15T10:54:54;50.60;;;5.73;;
2838;SDS011;1427;48.510;9.060;2023-05-15T10:57:22;48.70;;;4.57;;
2838;SDS011;1427;48.510;9.060;2023-05-15T10:59:50;55.40;;;6.30;;
2838;SDS011;1427;48.510;9.060;2023-05-15T11:02:19;49.90;;;5.00;;
2838;SDS011;1427;48.510;9.060;2023-05-15T11:04:53;50.10;;;5.20;;
2838;SDS011;1427;48.510;9.060;2023-05-15T11:07:22;51.20;;;5.33;;
2838;SDS011;1427;48.510;9.060;2023-05-15T11:09:52;49.37;;;5.00;;
2838;SDS011;1427;48.510;9.060;2023-05-15T11:12:21;53.33;;;5.10;;
2838;SDS011;1427;48.510;9.060;2023-05-15T11:18:03;52.10;;;6.00;;
2838;SDS011;1427;48.510;9.060;2023-05-15T11:20:32;49.17;;;5.47;;
2838;SDS011;1427;48.510;9.060;2023-05-15T11:23:02;53.17;;;5.10;;
2838;SDS011;1427;48.510;9.060;2023-05-15T11:25:32;51.20;;;5.00;;
2838;SDS011;1427;48.510;9.060;2023-05-15T11:28:02;48.97;;;5.00;;
2838;SDS011;1427;48.510;9.060;2023-05-15T11:30:34;50.07;;;5.00;;
2838;SDS011;1427;48.510;9.060;2023-05-15T11:33:05;50.67;;;4.73;;
2838;SDS011;1427;48.510;9.060;2023-05-15T11:35:37;50.20;;;5.00;;
2838;SDS011;1427;48.510;9.060;2023-05-15T11:38:11;48.90;;;4.60;;
2838;SDS011;1427;48.510;9.060;2023-05-15T11:40:46;50.40;;;5.90;;
2838;SDS011;1427;48.510;9.060;2023-05-15T11:43:19;48.67;;;4.37;;
2838;SDS011;1427;48.510;9.060;2023-05-15T11:45:49;50.60;;;5.60;;
2838;SDS011;1427;48.510;9.060;2023-05-15T11:48:21;50.33;;;5.10;;
2838;SDS011;1427;48.510;9.060;2023-05-15T11:50:50;52.03;;;6.93;;
2838;SDS011;1427;48.510;9.060;2023-05-15T11:53:19;49.10;;;4.80;;
2838;SDS011;1427;48.510;9.060;2023-05-15T11:55:51;51.17;;;5.30;;
2838;SDS011;1427;48.510;9.060;2023-05-15T11:58:20;49.17;;;4.80;;
2838;SDS011;1427;48.510;9.060;2023-05-15T12:00:50;49.77;;;5.23;;
2838;SDS011;1427;48.510;9.060;2023-05-15T12:03:21;48.90;;;4.63;;
2838;SDS011;1427;48.510;9.060;2023-05-15T12:05:51;49.67;;;5.37;;
2838;SDS011;1427;48.510;9.060;2023-05-15T12:08:25;49.60;;;4.70;;
2838;SDS011;1427;48.510;9.060;2023-05-15T12:10:59;50.50;;;6.00;;
2838;SDS011;1427;48.510;9.060;2023-05-15T12:13:28;51.00;;;5.83;;
2838;SDS011;1427;48.510;9.060;2023-05-15T12:15:57;50.20;;;5.00;;
2838;SDS011;1427;48.510;9.060;2023-05-15T12:18:25;49.67;;;5.60;;
2838;SDS011;1427;48.510;9.060;2023-05-15T12:20:54;48.80;;;4.70;;
2838;SDS011;1427;48.510;9.060;2023-05-15T12:23:23;50.50;;;4.90;;
2838;SDS011;1427;48.510;9.060;2023-05-15T12:25:53;49.77;;;4.83;;
2838;SDS011;1427;48.510;9.060;2023-05-15T12:28:26;51.30;;;4.90;;
2838;SDS011;1427;48.510;9.060;2023-05-15T12:30:55;49.30;;;4.67;;
2838;SDS011;1427;48.510;9.060;2023-05-15T12:33:24;50.27;;;4.97;;
2838;SDS011;1427;48.510;9.060;2023-05-15T12:35:52;47.53;;;4.10;;
2838;SDS011;1427;48.510;9.060;2023-05-15T12:38:26;48.70;;;4.87;;
2838;SDS011;1427;48.510;9.060;2023-05-15T12:40:54;50.33;;;5.70;;
2838;SDS011;1427;48.510;9.060;2023-05-15T12:43:23;49.17;;;4.63;;
2838;SDS011;1427;48.510;9.060;2023-05-15T12:45:53;49.63;;;4.53;;
2838;SDS011;1427;48.510;9.060;2023-05-15T12:48:22;49.80;;;4.80;;
2838;SDS011;1427;48.510;9.060;2023-05-15T12:50:55;49.33;;;4.73;;
2838;SDS011;1427;48.510;9.060;2023-05-15T12:53:31;48.20;;;4.47;;
2838;SDS011;1427;48.510;9.060;2023-05-15T12:56:00;47.90;;;4.30;;
2838;SDS011;1427;48.510;9.060;2023-05-15T12:58:30;50.27;;;5.00;;
2838;SDS011;1427;48.510;9.060;2023-05-15T13:01:01;49.00;;;5.13;;
2838;SDS011;1427;48.510;9.060;2023-05-15T13:03:30;50.53;;;6.00;;
2838;SDS011;1427;48.510;9.060;2023-05-15T13:06:00;49.10;;;5.37;;
2838;SDS011;1427;48.510;9.060;2023-05-15T13:08:29;48.50;;;4.80;;
2838;SDS011;1427;48.510;9.060;2023-05-15T13:10:58;47.63;;;3.90;;
2838;SDS011;1427;48.510;9.060;2023-05-15T13:13:40;48.43;;;4.97;;
2838;SDS011;1427;48.510;9.060;2023-05-15T13:16:23;50.03;;;4.10;;
2838;SDS011;1427;48.510;9.060;2023-05-15T13:18:52;48.27;;;4.57;;
2838;SDS011;1427;48.510;9.060;2023-05-15T13:21:21;48.60;;;4.37;;
2838;SDS011;1427;48.510;9.060;2023-05-15T13:23:50;48.20;;;4.40;;
2838;SDS011;1427;48.510;9.060;2023-05-15T13:26:18;49.30;;;5.33;;
2838;SDS011;1427;48.510;9.060;2023-05-15T13:28:47;48.80;;;4.43;;
2838;SDS011;1427;48.510;9.060;2023-05-15T13:31:15;49.17;;;5.30;;
2838;SDS011;1427;48.510;9.060;2023-05-15T13:33:44;51.63;;;5.70;;
2838;SDS011;1427;48.510;9.060;2023-05-15T13:36:12;49.20;;;5.67;;
2838;SDS011;1427;48.510;9.060;2023-05-15T13:38:40;51.83;;;4.70;;
2838;SDS011;1427;48.510;9.060;2023-05-15T13:41:08;48.40;;;4.80;;
2838;SDS011;1427;48.510;9.060;2023-05-15T13:43:37;48.37;;;4.13;;
2838;SDS011;1427;48.510;9.060;2023-05-15T13:46:05;49.50;;;5.10;;
2838;SDS011;1427;48.510;9.060;2023-05-15T13:48:39;48.37;;;4.60;;
2838;SDS011;1427;48.510;9.060;2023-05-15T13:51:08;49.67;;;5.07;;
2838;SDS011;1427;48.510;9.060;2023-05-15T13:53:37;48.57;;;4.50;;
2838;SDS011;1427;48.510;9.060;2023-05-15T13:56:05;49.20;;;4.87;;
2838;SDS011;1427;48.510;9.060;2023-05-15T13:58:33;49.50;;;5.70;;
2838;SDS011;1427;48.510;9.060;2023-05-15T14:01:03;50.33;;;5.70;;
2838;SDS011;1427;48.510;9.060;2023-05-15T14:03:32;52.40;;;5.53;;
2838;SDS011;1427;48.510;9.060;2023-05-15T14:06:00;48.87;;;5.10;;
2838;SDS011;1427;48.510;9.060;2023-05-15T14:08:30;49.30;;;4.87;;
2838;SDS011;1427;48.510;9.060;2023-05-15T14:10:58;49.20;;;4.50;;
2838;SDS011;1427;48.510;9.060;2023-05-15T14:13:26;48.93;;;4.73;;
2838;SDS011;1427;48.510;9.060;2023-05-15T14:15:56;50.40;;;4.60;;
2838;SDS011;1427;48.510;9.060;2023-05-15T14:18:24;48.43;;;4.07;;
2838;SDS011;1427;48.510;9.060;2023-05-15T14:20:54;47.67;;;4.33;;
2838;SDS011;1427;48.510;9.060;2023-05-15T14:23:22;48.73;;;5.13;;
2838;SDS011;1427;48.510;9.060;2023-05-15T14:25:52;48.30;;;4.63;;
2838;SDS011;1427;48.510;9.060;2023-05-15T14:28:20;50.00;;;4.00;;
2838;SDS011;1427;48.510;9.060;2023-05-15T14:30:48;47.43;;;4.13;;
2838;SDS011;1427;48.510;9.060;2023-05-15T14:33:16;48.37;;;4.57;;
2838;SDS011;1427;48.510;9.060;2023-05-15T14:35:45;48.40;;;5.27;;
2838;SDS011;1427;48.510;9.060;2023-05-15T14:38:13;47.67;;;4.37;;
2838;SDS011;1427;48.510;9.060;2023-05-15T14:40:41;49.30;;;4.87;;
2838;SDS011;1427;48.510;9.060;2023-05-15T14:43:11;51.47;;;5.10;;
2838;SDS011;1427;48.510;9.060;2023-05-15T14:45:39;48.27;;;4.40;;
2838;SDS011;1427;48.510;9.060;2023-05-15T14:48:07;47.80;;;3.90;;
2838;SDS011;1427;48.510;9.060;2023-05-15T14:50:37;49.23;;;5.47;;
2838;SDS011;1427;48.510;9.060;2023-05-15T14:53:05;48.97;;;4.87;;
2838;SDS011;1427;48.510;9.060;2023-05-15T14:55:33;49.60;;;5.77;;
2838;SDS011;1427;48.510;9.060;2023-05-15T14:58:01;49.07;;;4.93;;
2838;SDS011;1427;48.510;9.060;2023-05-15T15:00:30;50.50;;;5.37;;
2838;SDS011;1427;48.510;9.060;2023-05-15T15:02:58;49.57;;;4.93;;
2838;SDS011;1427;48.510;9.060;2023-05-15T15:05:27;46.87;;;3.83;;
2838;SDS011;1427;48.510;9.060;2023-05-15T15:07:56;48.80;;;5.33;;
2838;SDS011;1427;48.510;9.060;2023-05-15T15:10:25;47.90;;;4.33;;
2838;SDS011;1427;48.510;9.060;2023-05-15T15:12:54;47.17;;;4.67;;
2838;SDS011;1427;48.510;9.060;2023-05-15T15:15:22;48.00;;;4.10;;
2838;SDS011;1427;48.510;9.060;2023-05-15T15:17:51;48.80;;;4.03;;
2838;SDS011;1427;48.510;9.060;2023-05-15T15:20:19;50.17;;;5.10;;